Time;durP1;ratioP1;P1;durP2;ratioP2;P2;SDS_P1;SDS_P2;PMS_P1;PMS_P2;Temp;Humidity;BMP_temperature;BMP_pressure;BME280_temperature;BME280_humidity;BME280_pressure;Samples;Min_cycle;Max_cycle;Signal;HPM_P1;HPM_P2
2022/11/13 00:02:02;;;;;;;42.95;34.30;;;12.70;99.90;;;12.48;81.65;102532.06;5114109;28;20105;-83
2022/11/13 00:04:49;;;;;;;42.10;34.33;;;12.60;99.90;;;12.61;82.65;102582.69;5114374;28;20051;-82
2022/11/13 00:07:37;;;;;;;44.35;34.40;;;12.50;99.90;;;12.90;82.74;102566.25;5113917;28;20281;-82
2022/11/13 00:10:24;;;;;;;48.03;34.97;;;12.60;99.90;;;11.92;83.38;102453.38;5114076;28;20132;-83
2022/11/13 00:13:14;;;;;;;51.58;35.58;;;12.40;99.90;;;12.40;84.32;102565.56;5114238;28;20055;-83
2022/11/13 00:16:03;;;;;;;46.28;36.13;;;12.20;99.90;;;12.28;84.43;102565.34;5113844;28;20050;-83
2022/11/13 00:18:50;;;;;;;47.83;36.33;;;12.20;99.90;;;12.25;85.19;102560.88;5114410;28;20054;-82
2022/11/13 00:21:37;;;;;;;47.95;35.40;;;12.00;99.90;;;12.19;85.52;102554.59;5114027;28;20093;-82
2022/11/13 00:24:26;;;;;;;54.20;37.45;;;12.00;99.90;;;11.91;85.78;102547.94;5113894;28;20412;-82
2022/11/13 00:27:13;;;;;;;49.15;37.13;;;12.00;99.90;;;11.54;86.74;102481.84;5113912;28;20507;-82
2022/11/13 00:30:00;;;;;;;50.00;34.72;;;11.90;99.90;;;12.14;86.66;102550.97;5113371;28;20058;-82
2022/11/13 00:32:47;;;;;;;46.65;36.22;;;11.90;99.90;;;12.31;86.18;102541.53;5113411;28;20047;-82
2022/11/13 00:35:34;;;;;;;45.20;35.15;;;12.00;99.90;;;12.45;86.16;102542.63;5113731;28;20058;-82
2022/11/13 00:38:21;;;;;;;43.38;34.15;;;12.20;99.90;;;12.55;85.61;102536.56;5113204;28;20054;-82
2022/11/13 00:41:09;;;;;;;41.80;33.70;;;12.30;99.90;;;12.54;84.95;102506.47;5113248;28;20050;-83
2022/11/13 00:43:56;;;;;;;46.80;33.03;;;12.40;99.90;;;12.45;84.46;102473.59;5113312;28;20051;-83
2022/11/13 00:46:44;;;;;;;45.03;32.60;;;12.40;99.90;;;12.76;84.17;102531.56;5113385;28;20187;-82
2022/11/13 00:49:31;;;;;;;45.33;32.85;;;12.50;99.90;;;12.61;83.60;102494.19;5113292;28;20050;-82
2022/11/13 00:52:18;;;;;;;41.17;32.65;;;12.50;99.90;;;12.78;83.18;102515.63;5113383;28;20055;-82
2022/11/13 00:55:07;;;;;;;40.78;31.80;;;12.50;99.90;;;12.81;82.75;102516.59;5113012;28;20097;-82
2022/11/13 00:57:55;;;;;;;44.15;31.77;;;12.60;99.90;;;12.82;82.37;102512.16;5113261;28;20042;-82
2022/11/13 01:00:45;;;;;;;38.95;31.27;;;12.60;99.90;;;12.54;82.31;102455.16;5116757;28;20173;-82
2022/11/13 01:03:32;;;;;;;36.90;30.98;;;12.50;99.90;;;12.89;82.37;102511.38;5117028;28;20058;-81
2022/11/13 01:06:23;;;;;;;39.53;31.95;;;12.60;99.90;;;12.82;82.02;102506.84;5116868;28;20063;-82
2022/11/13 01:09:13;;;;;;;41.28;31.13;;;12.50;99.90;;;12.35;81.80;102448.72;5116757;28;20093;-82
2022/11/13 01:12:00;;;;;;;38.80;30.40;;;12.60;99.90;;;12.92;81.69;102498.13;5116417;28;20412;-82
2022/11/13 01:14:49;;;;;;;39.05;29.67;;;12.60;99.90;;;12.98;81.36;102501.75;5116680;28;20073;-82
2022/11/13 01:17:35;;;;;;;38.00;31.05;;;12.60;99.90;;;13.01;81.44;102515.06;5116448;28;20189;-82
2022/11/13 01:20:24;;;;;;;38.25;30.40;;;12.70;99.90;;;12.51;81.12;102399.38;5116366;28;20057;-82
2022/11/13 01:23:11;;;;;;;39.33;30.52;;;12.70;99.90;;;13.09;80.89;102500.13;5116372;28;20051;-82
2022/11/13 01:26:07;;;;;;;41.85;30.38;;;12.80;99.90;;;13.06;80.62;102507.19;5116419;28;20417;-82
2022/11/13 01:28:55;;;;;;;38.00;29.13;;;12.80;99.90;;;13.01;80.47;102496.47;5116346;28;20047;-82
2022/11/13 01:31:44;;;;;;;39.28;31.25;;;12.80;99.90;;;12.75;80.28;102434.19;5116557;28;20054;-82
2022/11/13 01:34:31;;;;;;;34.53;27.95;;;12.80;99.90;;;12.78;80.38;102466.09;5116338;28;20054;-82
2022/11/13 01:37:18;;;;;;;35.65;29.17;;;12.80;99.90;;;12.95;80.27;102488.41;5115556;28;20058;-82
2022/11/13 01:40:06;;;;;;;38.25;29.67;;;12.80;99.90;;;12.20;80.35;102360.06;5116018;28;20054;-82
2022/11/13 01:42:53;;;;;;;34.72;27.85;;;12.80;99.90;;;12.97;80.28;102502.59;5115923;28;20093;-82
2022/11/13 01:46:19;;;;;;;37.05;28.33;;;12.70;99.90;;;13.00;80.25;102517.69;5116129;28;20077;-82
2022/11/13 01:49:25;;;;;;;33.88;28.48;;;12.70;99.90;;;12.90;80.10;102487.47;5116110;28;20043;-82
2022/11/13 01:52:18;;;;;;;34.78;27.85;;;12.80;99.90;;;12.72;80.09;102451.84;5116686;28;20054;-82
2022/11/13 01:55:11;;;;;;;34.78;27.80;;;12.70;99.90;;;12.92;80.13;102495.47;5116837;28;20415;-82
2022/11/13 01:57:59;;;;;;;33.10;26.73;;;12.70;99.90;;;12.84;79.97;102467.91;5117303;28;20058;-82
2022/11/13 02:00:46;;;;;;;36.15;27.08;;;12.60;99.90;;;12.72;79.87;102449.22;5117725;28;20097;-82
2022/11/13 02:03:34;;;;;;;32.60;26.40;;;12.60;99.90;;;12.86;79.67;102469.72;5118426;28;20140;-82
2022/11/13 02:06:22;;;;;;;32.95;27.00;;;12.70;99.90;;;12.89;79.73;102475.06;5118474;28;20054;-82
2022/11/13 02:09:11;;;;;;;35.70;25.95;;;12.60;99.90;;;12.51;79.99;102415.28;5118324;28;20577;-82
2022/11/13 02:11:59;;;;;;;31.08;25.98;;;12.50;99.90;;;12.73;80.03;102474.88;5118696;28;20451;-82
2022/11/13 02:14:50;;;;;;;33.88;27.58;;;12.40;99.90;;;12.66;79.94;102466.81;5117151;28;20059;-82
2022/11/13 02:17:43;;;;;;;32.13;26.20;;;12.40;99.90;;;12.46;80.15;102428.53;5116803;28;20047;-82
2022/11/13 02:20:45;;;;;;;32.75;26.00;;;12.30;99.90;;;11.91;80.08;102317.25;5116479;28;20078;-82
2022/11/13 02:23:44;;;;;;;30.25;25.10;;;12.40;99.90;;;12.72;80.23;102467.78;5117794;28;20424;-82
2022/11/13 02:26:34;;;;;;;32.03;25.25;;;12.40;99.90;;;12.77;80.07;102466.97;5118342;28;20070;-82
2022/11/13 02:29:21;;;;;;;30.08;25.02;;;12.50;99.90;;;12.34;80.19;102390.31;5116376;28;20050;-82
2022/11/13 02:32:08;;;;;;;28.92;24.30;;;12.50;99.90;;;11.78;79.88;102283.50;5115917;28;20047;-82
2022/11/13 02:34:55;;;;;;;28.98;23.20;;;12.50;99.90;;;12.55;80.11;102422.44;5115642;28;20515;-82
2022/11/13 02:37:42;;;;;;;28.35;24.92;;;12.50;99.90;;;12.14;79.89;102346.72;5116028;28;20065;-82
2022/11/13 02:40:29;;;;;;;28.40;23.45;;;12.50;99.90;;;12.29;79.97;102371.66;5115406;28;20142;-82
2022/11/13 02:43:17;;;;;;;30.48;23.73;;;12.50;99.90;;;12.72;79.70;102457.16;5114944;28;20401;-82
2022/11/13 02:46:05;;;;;;;27.38;23.52;;;12.50;99.90;;;12.60;79.81;102439.31;5114925;28;20160;-82
2022/11/13 02:48:51;;;;;;;29.08;23.20;;;12.40;99.90;;;12.62;79.90;102467.66;5114662;28;20116;-82
2022/11/13 02:51:38;;;;;;;27.40;22.42;;;12.40;99.90;;;12.58;79.86;102438.41;5114503;28;20043;-81
2022/11/13 02:54:25;;;;;;;26.58;22.40;;;12.40;99.90;;;12.56;79.79;102425.09;5114935;28;20050;-81
2022/11/13 02:57:12;;;;;;;26.25;21.75;;;12.40;99.90;;;12.00;79.70;102319.13;5114493;28;20097;-82
2022/11/13 03:00:00;;;;;;;27.85;21.40;;;12.40;99.90;;;12.61;79.96;102427.81;5114773;28;20045;-82
2022/11/13 03:02:49;;;;;;;27.48;21.08;;;12.30;99.90;;;11.94;79.85;102311.09;5115076;28;20187;-83
2022/11/13 03:05:36;;;;;;;27.00;21.08;;;12.30;99.90;;;12.51;79.82;102404.69;5114793;28;20051;-83
2022/11/13 03:08:24;;;;;;;23.08;20.63;;;12.40;99.90;;;12.57;79.82;102410.97;5114346;28;20051;-83
2022/11/13 03:11:13;;;;;;;25.42;21.88;;;12.40;99.90;;;12.38;79.62;102386.84;5114325;28;20053;-83
2022/11/13 03:14:00;;;;;;;23.98;20.67;;;12.40;99.90;;;12.58;79.68;102425.16;5114358;28;20067;-83
2022/11/13 03:16:48;;;;;;;24.15;21.50;;;12.40;99.90;;;12.01;79.25;102321.81;5114291;28;20169;-83
2022/11/13 03:19:35;;;;;;;23.55;20.05;;;12.40;99.90;;;12.44;79.25;102387.81;5114424;28;20598;-83
2022/11/13 03:22:22;;;;;;;25.88;20.40;;;12.40;99.90;;;12.48;79.52;102394.03;5113775;28;20058;-83
2022/11/13 03:25:09;;;;;;;24.10;20.10;;;12.30;99.90;;;12.42;79.39;102389.56;5114574;28;20412;-83
2022/11/13 03:27:57;;;;;;;22.67;19.25;;;12.30;99.90;;;12.54;79.13;102415.34;5114126;28;20066;-83
2022/11/13 03:30:44;;;;;;;22.55;19.00;;;12.30;99.90;;;12.31;79.19;102377.03;5113993;28;20062;-84
2022/11/13 03:33:33;;;;;;;25.92;19.88;;;12.30;99.90;;;12.41;79.34;102403.69;5113703;28;20124;-83
2022/11/13 03:36:20;;;;;;;24.48;19.30;;;12.30;99.90;;;12.37;79.41;102416.88;5113517;28;20309;-83
2022/11/13 03:39:07;;;;;;;25.38;19.15;;;12.20;99.90;;;11.89;79.29;102318.97;5113993;28;20101;-83
2022/11/13 03:41:54;;;;;;;25.98;19.50;;;12.20;99.90;;;12.23;79.16;102422.00;5113755;28;20071;-83
2022/11/13 03:44:41;;;;;;;20.85;18.20;;;12.10;99.90;;;10.68;79.18;102197.03;5113846;28;20504;-83
2022/11/13 03:47:28;;;;;;;23.10;18.50;;;11.80;99.90;;;11.64;79.92;102384.00;5113625;28;20105;-83
2022/11/13 03:50:18;;;;;;;25.10;18.92;;;11.80;99.90;;;11.43;80.17;102306.81;5113839;28;20113;-83
2022/11/13 03:53:05;;;;;;;25.30;18.20;;;11.70;99.90;;;11.84;80.23;102370.16;5113614;28;20428;-83
2022/11/13 03:55:53;;;;;;;21.90;18.17;;;11.70;99.90;;;12.09;80.10;102420.03;5113589;28;20046;-83
2022/11/13 03:58:40;;;;;;;22.48;18.13;;;11.80;99.90;;;11.99;80.06;102384.53;5113837;28;20051;-83
2022/11/13 04:01:33;;;;;;;24.25;18.40;;;11.80;99.90;;;11.97;79.81;102402.19;5113766;28;20150;-84
2022/11/13 04:04:20;;;;;;;20.73;16.75;;;11.90;99.90;;;11.83;79.74;102345.41;5113909;28;20409;-83
2022/11/13 04:07:08;;;;;;;26.40;18.55;;;11.90;99.90;;;11.90;79.51;102352.59;5113752;28;20043;-83
2022/11/13 04:09:56;;;;;;;22.38;18.75;;;11.90;99.90;;;11.57;79.66;102365.31;5113818;28;20050;-83
2022/11/13 04:12:43;;;;;;;23.23;18.42;;;11.70;99.90;;;11.68;80.33;102395.56;5113395;28;20089;-83
2022/11/13 04:15:30;;;;;;;21.85;17.88;;;11.50;99.90;;;11.55;80.61;102375.91;5113634;28;20397;-83
2022/11/13 04:18:17;;;;;;;25.30;18.48;;;11.50;99.90;;;11.07;81.40;102345.06;5113395;28;20062;-83
2022/11/13 04:21:05;;;;;;;24.63;18.40;;;11.20;99.90;;;11.04;82.19;102392.66;5113453;28;20058;-83
2022/11/13 04:23:54;;;;;;;23.45;18.45;;;10.90;99.90;;;10.89;82.58;102377.41;5113478;28;20051;-83
2022/11/13 04:26:41;;;;;;;25.38;19.10;;;10.90;99.90;;;10.90;83.38;102408.28;5113501;28;20188;-83
2022/11/13 04:29:28;;;;;;;24.10;18.05;;;10.80;99.90;;;11.00;83.26;102390.81;5113280;28;20073;-83
2022/11/13 04:32:15;;;;;;;23.05;18.60;;;10.80;99.90;;;11.12;83.15;102381.34;5113264;28;20051;-83
2022/11/13 04:35:02;;;;;;;23.20;17.88;;;10.90;99.90;;;10.72;83.05;102294.16;5116114;28;20550;-83
2022/11/13 04:37:49;;;;;;;23.20;18.08;;;11.00;99.90;;;10.96;82.61;102299.84;5116816;28;20051;-83
2022/11/13 04:40:40;;;;;;;21.58;18.25;;;11.10;99.90;;;11.38;82.30;102363.25;5117066;28;20062;-83
2022/11/13 04:43:26;;;;;;;26.65;18.27;;;11.20;99.90;;;11.43;81.84;102367.75;5116994;28;20050;-82
2022/11/13 04:46:13;;;;;;;22.35;18.00;;;11.20;99.90;;;11.04;81.62;102292.94;5116937;28;20054;-83
2022/11/13 04:48:59;;;;;;;21.60;17.48;;;11.20;99.90;;;11.21;81.19;102320.56;5117150;28;20428;-83
2022/11/13 04:51:47;;;;;;;21.98;17.88;;;11.30;99.90;;;10.95;80.74;102297.19;5116916;28;20051;-83
2022/11/13 04:54:34;;;;;;;29.25;17.58;;;11.30;99.90;;;11.01;81.75;102367.03;5117391;28;20054;-83
2022/11/13 04:57:23;;;;;;;20.25;17.67;;;11.00;99.90;;;10.84;82.50;102395.81;5117184;28;20097;-83
2022/11/13 05:00:12;;;;;;;20.45;17.10;;;10.70;99.90;;;10.36;82.21;102252.03;5116858;28;20105;-83
2022/11/13 05:02:59;;;;;;;22.52;16.85;;;10.80;99.90;;;10.76;82.15;102286.28;5117416;28;20063;-83
2022/11/13 05:05:46;;;;;;;20.58;16.75;;;11.00;99.90;;;11.22;81.86;102371.81;5118268;28;20050;-83
2022/11/13 05:08:33;;;;;;;21.80;17.48;;;11.00;99.90;;;11.29;81.69;102357.78;5116489;28;20405;-83
2022/11/13 05:11:21;;;;;;;22.98;17.75;;;11.10;99.90;;;11.28;81.40;102348.06;5116622;28;20078;-83
2022/11/13 05:14:12;;;;;;;22.40;18.05;;;11.10;99.90;;;9.67;81.09;102086.78;5116818;28;20119;-84
2022/11/13 05:16:59;;;;;;;21.42;17.27;;;11.10;99.90;;;11.36;81.03;102344.66;5116604;28;20046;-82
2022/11/13 05:19:46;;;;;;;21.25;16.67;;;11.20;99.90;;;11.35;80.85;102342.88;5116417;28;20050;-83
2022/11/13 05:22:33;;;;;;;21.17;16.48;;;11.20;99.90;;;11.27;80.67;102375.41;5116482;28;20101;-84
2022/11/13 05:25:20;;;;;;;19.38;16.42;;;11.20;99.90;;;11.27;80.68;102340.97;5116413;28;20059;-83
2022/11/13 05:28:07;;;;;;;21.67;16.92;;;11.10;99.90;;;11.12;80.27;102314.25;5116551;28;20066;-83
2022/11/13 05:31:04;;;;;;;21.00;16.67;;;11.10;99.90;;;10.98;80.47;102321.94;5116435;28;20045;-83
2022/11/13 05:33:52;;;;;;;21.90;16.73;;;11.00;99.90;;;10.83;80.76;102281.97;5116738;28;20581;-83
2022/11/13 05:36:39;;;;;;;23.40;17.30;;;10.90;99.90;;;10.95;80.67;102292.78;5116320;28;20637;-83
2022/11/13 05:39:26;;;;;;;21.10;16.33;;;11.00;99.90;;;9.86;80.41;102116.22;5075605;28;20102;-83
2022/11/13 05:42:13;;;;;;;18.92;15.65;;;11.00;99.90;;;11.19;80.58;102313.50;5075463;28;20605;-83
2022/11/13 05:45:00;;;;;;;19.80;16.40;;;11.00;99.90;;;10.97;80.21;102295.44;5074928;28;20410;-83
2022/11/13 05:47:50;;;;;;;19.20;15.68;;;11.10;99.90;;;10.96;80.11;102272.47;5075657;28;20064;-83
2022/11/13 05:50:37;;;;;;;22.95;15.82;;;11.10;99.90;;;10.96;79.94;102267.19;5075637;28;20556;-83
2022/11/13 05:53:24;;;;;;;20.08;16.15;;;11.10;99.90;;;11.19;80.06;102305.53;5075549;28;20186;-83
2022/11/13 05:56:17;;;;;;;17.42;15.38;;;11.10;99.90;;;10.40;79.58;102171.88;5077174;28;20055;-85
2022/11/13 05:59:05;;;;;;;20.15;15.70;;;11.10;99.90;;;11.15;79.32;102290.47;5076028;28;20055;-83
2022/11/13 06:01:52;;;;;;;20.60;16.88;;;11.10;99.90;;;10.35;79.26;102165.63;5075857;28;20063;-83
2022/11/13 06:04:41;;;;;;;22.05;16.38;;;11.00;99.90;;;10.90;79.41;102305.03;5076477;28;20052;-83
2022/11/13 06:07:28;;;;;;;23.45;16.67;;;11.00;99.90;;;11.03;79.46;102309.69;5079334;28;20052;-83
2022/11/13 06:10:18;;;;;;;22.85;15.80;;;10.90;99.90;;;11.04;79.07;102281.44;5084449;28;20050;-83
2022/11/13 06:13:05;;;;;;;21.45;15.63;;;10.90;99.90;;;11.11;79.08;102299.22;5088428;28;20051;-82
2022/11/13 06:15:52;;;;;;;22.27;17.67;;;10.90;99.90;;;10.44;79.10;102172.81;5085974;28;20524;-83
2022/11/13 06:18:41;;;;;;;20.90;17.55;;;11.00;99.90;;;10.70;78.86;102237.66;5076493;28;20097;-83
2022/11/13 06:21:33;;;;;;;22.13;16.90;;;11.00;99.90;;;11.14;79.06;102291.31;5076392;28;20056;-83
2022/11/13 06:24:19;;;;;;;21.88;16.40;;;11.00;99.90;;;11.12;78.96;102279.81;5075703;28;20137;-82
2022/11/13 06:27:06;;;;;;;20.75;16.08;;;11.00;99.90;;;11.06;78.40;102274.41;5074920;28;20059;-83
2022/11/13 06:29:54;;;;;;;18.20;15.05;;;11.00;99.90;;;11.09;78.49;102272.69;5074772;28;20052;-83
2022/11/13 06:32:41;;;;;;;20.08;16.25;;;11.00;99.90;;;11.28;78.55;102290.69;5074656;28;20090;-83
2022/11/13 06:35:28;;;;;;;16.80;14.85;;;11.00;99.90;;;11.18;78.02;102266.66;5074589;28;20063;-83
2022/11/13 06:38:16;;;;;;;18.77;15.55;;;11.10;99.90;;;11.07;78.13;102266.50;5095839;28;20054;-83
2022/11/13 06:41:05;;;;;;;18.80;15.50;;;11.10;99.90;;;11.15;77.60;102270.16;5115515;28;20062;-83
2022/11/13 06:43:52;;;;;;;22.20;15.20;;;11.10;99.90;;;11.36;77.33;102294.31;5115005;28;20114;-82
2022/11/13 06:46:39;;;;;;;18.60;15.05;;;11.10;99.90;;;11.22;77.15;102282.66;5114980;28;20063;-83
2022/11/13 06:49:26;;;;;;;17.92;14.73;;;11.20;99.90;;;10.85;77.17;102198.19;5114935;28;20046;-83
2022/11/13 06:52:12;;;;;;;17.75;14.85;;;11.20;99.90;;;11.44;76.98;102303.28;5114449;28;20066;-82
2022/11/13 06:55:01;;;;;;;20.70;14.98;;;11.20;99.90;;;9.80;76.19;102044.78;5114928;28;20042;-83
2022/11/13 06:57:48;;;;;;;18.83;15.27;;;11.30;99.90;;;11.53;76.36;102278.69;5114117;28;20135;-81
2022/11/13 07:00:35;;;;;;;19.25;15.25;;;11.30;99.90;;;11.45;75.99;102269.72;5114639;28;20054;-81
2022/11/13 07:03:27;;;;;;;17.38;14.73;;;11.40;99.90;;;11.43;75.83;102260.88;5114648;28;20054;-82
2022/11/13 07:06:18;;;;;;;19.67;15.13;;;11.40;99.90;;;10.94;75.64;102178.94;5114487;28;20140;-82
2022/11/13 07:09:05;;;;;;;16.98;14.38;;;11.40;99.90;;;11.24;75.82;102214.69;5114299;28;20042;-82
2022/11/13 07:11:54;;;;;;;16.92;14.77;;;11.40;99.90;;;11.30;75.66;102275.72;5114153;28;20132;-82
2022/11/13 07:14:41;;;;;;;18.85;14.82;;;11.50;99.90;;;11.93;75.38;102291.63;5114386;28;20054;-84
2022/11/13 07:17:29;;;;;;;19.42;14.35;;;11.70;99.90;;;11.16;74.67;102136.88;5115237;28;20619;-82
2022/11/13 07:20:16;;;;;;;19.30;14.73;;;11.80;99.90;;;11.98;73.66;102233.38;5113930;28;20055;-83
2022/11/13 07:23:04;;;;;;;18.13;14.52;;;11.90;99.90;;;12.11;72.72;102243.22;5113997;28;20128;-81
2022/11/13 07:25:54;;;;;;;17.42;15.00;;;12.10;99.90;;;12.43;72.04;102273.66;5114129;28;20500;-81
2022/11/13 07:28:42;;;;;;;17.98;14.40;;;12.20;99.90;;;12.06;71.88;102271.47;5113943;28;20055;-81
2022/11/13 07:31:29;;;;;;;18.67;14.73;;;12.00;99.90;;;11.99;71.86;102256.34;5113988;28;20047;-82
2022/11/13 07:34:16;;;;;;;16.23;14.27;;;11.90;99.90;;;12.04;71.73;102230.78;5113709;28;20144;-83
2022/11/13 07:37:05;;;;;;;16.58;13.82;;;12.00;99.90;;;12.70;71.00;102263.31;5113701;28;20062;-82
2022/11/13 07:39:52;;;;;;;15.02;13.15;;;12.40;99.90;;;13.16;69.98;102264.63;5113796;28;20073;-84
2022/11/13 07:42:39;;;;;;;18.95;13.55;;;12.80;99.90;;;13.22;68.27;102212.41;5113688;28;20059;-82
2022/11/13 07:45:29;;;;;;;16.45;14.20;;;13.30;99.90;;;12.06;66.72;102006.28;5114076;28;20047;-82
2022/11/13 07:48:16;;;;;;;17.60;14.10;;;13.50;99.90;;;13.91;66.32;102269.50;5115159;28;20128;-83
2022/11/13 07:51:03;;;;;;;17.45;13.65;;;13.70;99.90;;;14.05;65.36;102267.78;5115584;28;20074;-83
2022/11/13 07:53:54;;;;;;;15.32;13.18;;;13.90;99.90;;;14.19;64.86;102266.03;5117455;28;20054;-84
2022/11/13 07:56:41;;;;;;;16.55;13.70;;;14.00;99.90;;;14.13;64.99;102266.06;5115229;28;20039;-83
2022/11/13 07:59:28;;;;;;;17.17;14.38;;;13.90;99.90;;;13.61;64.27;102147.06;5115657;28;20092;-82
2022/11/13 08:02:17;;;;;;;16.88;13.48;;;14.10;99.90;;;14.15;64.03;102258.97;5113665;28;20147;-84
2022/11/13 08:05:12;;;;;;;14.95;13.35;;;14.10;99.90;;;13.97;64.35;102272.19;5113455;28;20425;-82
2022/11/13 08:07:59;;;;;;;16.73;13.60;;;13.80;99.90;;;13.60;64.64;102225.91;5114499;28;20120;-83
2022/11/13 08:10:46;;;;;;;15.15;13.52;;;13.70;99.90;;;13.82;64.76;102320.88;5117949;28;20059;-83
2022/11/13 08:13:33;;;;;;;16.80;13.98;;;13.60;99.90;;;13.40;65.42;102232.88;5117512;28;20074;-83
2022/11/13 08:16:22;;;;;;;17.42;14.63;;;13.50;99.90;;;12.91;65.29;102117.41;5117770;28;20549;-83
2022/11/13 08:19:10;;;;;;;16.08;13.82;;;13.60;99.90;;;13.54;66.09;102273.75;5117768;28;20055;-82
2022/11/13 08:21:57;;;;;;;18.17;13.70;;;13.30;99.90;;;12.69;67.61;102197.81;5117529;28;20508;-84
2022/11/13 08:24:44;;;;;;;17.35;14.48;;;12.80;99.90;;;12.63;69.01;102233.19;5117584;28;20108;-85
2022/11/13 08:27:31;;;;;;;16.40;14.27;;;12.50;99.90;;;13.00;67.57;102252.06;5117578;28;20595;-83
2022/11/13 08:30:19;;;;;;;16.73;14.25;;;12.80;99.90;;;13.67;66.89;102254.31;5117279;28;20081;-82
2022/11/13 08:33:06;;;;;;;19.15;14.68;;;13.30;99.90;;;13.53;66.08;102278.16;5117056;28;20415;-83
2022/11/13 08:35:56;;;;;;;17.05;13.23;;;13.40;99.90;;;13.06;66.44;102194.59;5117027;28;20373;-84
2022/11/13 08:38:42;;;;;;;16.97;13.73;;;13.30;99.90;;;13.85;65.71;102238.44;5117776;28;20130;-83
2022/11/13 08:41:30;;;;;;;15.43;13.82;;;13.60;99.90;;;13.53;66.04;102266.63;5117580;28;20058;-85
2022/11/13 08:44:17;;;;;;;16.08;12.80;;;13.30;99.90;;;13.26;66.04;102229.25;5117018;28;20050;-83
2022/11/13 08:47:05;;;;;;;16.55;13.65;;;13.20;99.90;;;12.36;66.52;102141.78;5117240;28;20128;-84
2022/11/13 08:49:52;;;;;;;15.52;13.57;;;12.90;99.90;;;12.91;68.66;102260.84;5117152;28;20241;-84
2022/11/13 08:52:41;;;;;;;16.98;14.70;;;12.60;99.90;;;11.11;69.45;101987.63;5116899;28;20058;-85
2022/11/13 08:55:28;;;;;;;16.13;14.43;;;12.40;99.90;;;11.56;70.57;102086.16;5116744;28;20054;-85
2022/11/13 08:58:17;;;;;;;16.80;13.55;;;12.10;99.90;;;11.79;71.35;102148.31;5116839;28;20051;-85
2022/11/13 09:01:05;;;;;;;17.75;14.55;;;12.00;99.90;;;11.70;71.60;102124.34;5117270;28;20070;-85
2022/11/13 09:03:52;;;;;;;16.92;15.13;;;12.10;99.90;;;12.14;71.51;102180.50;5116910;28;20047;-84
2022/11/13 09:06:40;;;;;;;17.20;14.68;;;12.10;99.90;;;11.89;71.55;102149.28;5116884;28;20054;-85
2022/11/13 09:09:28;;;;;;;17.85;14.57;;;12.30;99.90;;;12.60;71.44;102189.78;5116515;28;20051;-83
2022/11/13 09:12:17;;;;;;;17.42;14.57;;;12.40;99.90;;;12.79;70.27;102220.03;5116893;28;20451;-83
2022/11/13 09:15:05;;;;;;;16.88;14.77;;;12.60;99.90;;;12.84;70.92;102226.25;5116498;28;20136;-84
2022/11/13 09:17:56;;;;;;;15.98;13.20;;;12.60;99.90;;;13.19;71.00;102222.13;5116509;28;20055;-84
2022/11/13 09:20:43;;;;;;;19.08;14.07;;;12.80;99.90;;;12.76;70.02;102146.53;5115836;28;20100;-85
2022/11/13 09:23:30;;;;;;;16.60;14.25;;;12.90;99.90;;;13.02;70.21;102214.03;5116706;28;20416;-83
2022/11/13 09:26:18;;;;;;;17.35;14.52;;;12.80;99.90;;;13.31;70.92;102203.63;5117445;28;20157;-85
2022/11/13 09:29:06;;;;;;;17.25;14.00;;;12.90;99.90;;;13.75;70.41;102204.72;5118331;28;20054;-85
2022/11/13 09:31:53;;;;;;;16.45;14.70;;;13.30;99.90;;;13.29;69.83;102208.03;5119906;28;20054;-86
2022/11/13 09:34:39;;;;;;;16.52;14.65;;;13.20;99.90;;;13.31;71.44;102201.84;5123761;28;20085;-85
2022/11/13 09:37:26;;;;;;;16.20;14.23;;;13.00;99.90;;;13.82;68.02;102182.56;5128002;28;20050;-85
2022/11/13 09:40:27;;;;;;;17.48;14.18;;;13.50;99.90;;;14.30;67.68;102166.75;5129133;28;20134;-83
2022/11/13 09:43:27;;;;;;;15.80;14.18;;;14.00;99.90;;;14.60;67.13;102176.53;5126637;28;20093;-83
2022/11/13 09:46:36;;;;;;;15.77;14.17;;;14.50;99.90;;;15.18;64.77;102212.00;5121269;28;20062;-84
2022/11/13 09:49:29;;;;;;;18.02;14.13;;;15.00;99.90;;;14.27;65.19;102190.72;5119519;28;20190;-84
2022/11/13 09:52:20;;;;;;;15.35;13.73;;;14.50;99.90;;;14.62;65.92;102201.38;5119746;28;20130;-84
2022/11/13 09:55:12;;;;;;;18.27;13.95;;;14.40;99.90;;;14.29;65.57;102146.34;5116779;28;20042;-83
2022/11/13 09:58:09;;;;;;;16.27;13.93;;;14.40;99.90;;;14.78;66.34;102176.53;5116485;28;20130;-82
2022/11/13 10:01:00;;;;;;;14.60;13.10;;;14.50;99.90;;;14.76;65.29;102199.63;5116482;28;20049;-82
2022/11/13 10:03:56;;;;;;;16.10;13.98;;;14.70;99.90;;;14.86;66.33;102197.84;5116552;28;20240;-82
2022/11/13 10:07:05;;;;;;;17.05;13.88;;;14.60;99.90;;;14.27;68.19;102188.03;5116442;28;20054;-83
2022/11/13 10:10:06;;;;;;;16.40;14.68;;;14.10;99.90;;;13.82;66.52;102067.34;5116398;28;20108;-82
2022/11/13 10:12:58;;;;;;;17.13;15.02;;;14.40;99.90;;;14.15;67.80;102195.09;5116228;28;20054;-83
2022/11/13 10:15:49;;;;;;;16.73;14.27;;;14.00;99.90;;;14.09;67.68;102153.38;5116314;28;20140;-85
2022/11/13 10:18:39;;;;;;;17.38;15.43;;;13.90;99.90;;;14.20;67.71;102161.38;5116243;28;20050;-82
2022/11/13 10:21:35;;;;;;;15.32;13.63;;;14.00;99.90;;;14.29;67.71;102190.69;5116497;28;20046;-83
2022/11/13 10:24:28;;;;;;;15.75;14.02;;;14.00;99.90;;;13.68;67.73;102112.50;5116805;28;20051;-82
2022/11/13 10:27:15;;;;;;;15.73;14.00;;;13.80;99.90;;;13.92;68.29;102132.94;5118319;28;20412;-83
2022/11/13 10:30:04;;;;;;;16.63;14.55;;;13.80;99.90;;;13.83;68.20;102171.06;5115704;28;20162;-83
2022/11/13 10:32:52;;;;;;;16.05;14.30;;;13.70;99.90;;;13.79;68.93;102157.72;5115545;28;20054;-82
2022/11/13 10:35:52;;;;;;;17.15;14.52;;;13.60;99.90;;;14.17;69.85;102177.34;5116015;28;20220;-83
2022/11/13 10:38:43;;;;;;;18.42;14.85;;;13.80;99.90;;;14.29;69.22;102105.53;5116087;28;20054;-82
2022/11/13 10:41:30;;;;;;;15.90;14.20;;;14.30;99.90;;;14.97;68.15;102140.09;5116857;28;20108;-83
2022/11/13 10:44:29;;;;;;;16.58;14.85;;;14.90;99.90;;;15.63;65.58;102163.91;5115585;28;20096;-82
2022/11/13 10:47:22;;;;;;;18.52;14.38;;;15.40;99.90;;;15.80;66.05;102151.38;5115152;28;20111;-83
2022/11/13 10:50:31;;;;;;;16.50;14.25;;;15.50;99.90;;;16.26;64.60;102181.34;5115483;28;20092;-82
2022/11/13 10:53:20;;;;;;;15.75;13.73;;;15.90;99.90;;;15.28;64.30;102140.00;5114655;28;20058;-82
2022/11/13 10:56:26;;;;;;;17.55;13.60;;;15.40;99.90;;;15.89;65.34;102121.09;5114341;28;20046;-81
2022/11/13 10:59:16;;;;;;;15.85;14.27;;;15.70;99.90;;;15.82;64.61;102122.00;5114496;28;20499;-82
2022/11/13 11:02:17;;;;;;;15.55;13.15;;;15.80;99.90;;;16.26;64.14;102147.50;5114258;28;20463;-82
2022/11/13 11:05:07;;;;;;;;;;;15.90;99.90;;;15.41;63.90;102137.31;5114677;28;20051;-83
2022/11/13 11:07:58;;;;;;;16.33;14.20;;;15.30;99.90;;;15.43;64.64;102138.22;5114355;28;20399;-81
2022/11/13 11:14:18;;;;;;;16.90;14.07;;;14.90;99.90;;;15.03;66.55;102109.00;5113831;28;20051;-81
2022/11/13 11:17:08;;;;;;;14.93;13.27;;;14.90;99.90;;;14.91;66.44;102079.72;5114314;28;20059;-81
2022/11/13 11:20:03;;;;;;;15.82;14.25;;;14.90;99.90;;;14.48;66.48;102048.72;5113968;28;20144;-83
2022/11/13 11:22:57;;;;;;;14.75;13.02;;;14.70;99.90;;;13.86;67.42;101947.63;5114372;28;20093;-82
2022/11/13 11:25:52;;;;;;;14.95;13.25;;;14.60;99.90;;;14.43;67.80;102074.47;5114469;28;20046;-83
2022/11/13 11:28:45;;;;;;;15.48;13.88;;;14.40;99.90;;;14.48;67.50;102054.94;5113790;28;20070;-83
2022/11/13 11:31:38;;;;;;;15.77;14.18;;;14.40;99.90;;;14.21;69.70;101976.84;5113945;28;20093;-83
2022/11/13 11:34:31;;;;;;;17.00;14.07;;;14.50;99.90;;;13.55;68.93;101848.38;5113837;28;20112;-82